EZY269 EGKK-EHAM
Flight info
| Callsign | EZY269 |
|---|---|
| Flight time | N/A |
| Altitude | 29000 |
| Route | FRANE M604 GASBA M197 REDFA |
| Aircraft | A20N/M-SDE2E3FGHIRWXY/LB1 |
Departure
| Time | N/A |
|---|---|
| Airport | London Gatwick Airport (EGKK) |
Arrival
| Time | 2026-05-06 19:51 |
|---|---|
| Airport | Amsterdam Airport Schiphol (EHAM) |
| Time | Latitude | Longitude | Altitude | Speed | Heading |
|---|---|---|---|---|---|
| 2026-05-06 19:27 | 52.03226 | 1.94467 | 28998 ft | 401 kts | 76° |
| 2026-05-06 19:28 | 52.04581 | 2.03281 | 28991 ft | 401 kts | 76° |
| 2026-05-06 19:28 | 52.05926 | 2.12071 | 28990 ft | 400 kts | 76° |
| 2026-05-06 19:29 | 52.07256 | 2.20814 | 28519 ft | 402 kts | 76° |
| 2026-05-06 19:29 | 52.07923 | 2.25217 | 27976 ft | 399 kts | 76° |
| 2026-05-06 19:29 | 52.08582 | 2.29581 | 27437 ft | 395 kts | 76° |
| 2026-05-06 19:29 | 52.09232 | 2.33897 | 26913 ft | 391 kts | 76° |
| 2026-05-06 19:30 | 52.09876 | 2.38179 | 26384 ft | 388 kts | 76° |
| 2026-05-06 19:30 | 52.10507 | 2.42395 | 25863 ft | 379 kts | 76° |
| 2026-05-06 19:30 | 52.11160 | 2.46549 | 25370 ft | 385 kts | 72° |
| 2026-05-06 19:30 | 52.12201 | 2.50756 | 24875 ft | 416 kts | 62° |
| 2026-05-06 19:31 | 52.13692 | 2.54959 | 24402 ft | 442 kts | 58° |
| 2026-05-06 19:31 | 52.15297 | 2.59342 | 24055 ft | 454 kts | 58° |
| 2026-05-06 19:31 | 52.18508 | 2.68198 | 23549 ft | 451 kts | 59° |
| 2026-05-06 19:32 | 52.19917 | 2.72723 | 23191 ft | 447 kts | 65° |
| 2026-05-06 19:32 | 52.21183 | 2.77359 | 22786 ft | 445 kts | 65° |
| 2026-05-06 19:32 | 52.22437 | 2.81946 | 22380 ft | 443 kts | 65° |
| 2026-05-06 19:32 | 52.23684 | 2.86534 | 22060 ft | 440 kts | 65° |
| 2026-05-06 19:33 | 52.24912 | 2.91089 | 22005 ft | 439 kts | 65° |
| 2026-05-06 19:33 | 52.26146 | 2.95688 | 21864 ft | 443 kts | 66° |
| 2026-05-06 19:33 | 52.27371 | 3.00270 | 21475 ft | 439 kts | 65° |
| 2026-05-06 19:33 | 52.28588 | 3.04841 | 21086 ft | 438 kts | 65° |
| 2026-05-06 19:34 | 52.29792 | 3.09371 | 20701 ft | 433 kts | 65° |
| 2026-05-06 19:34 | 52.30988 | 3.13881 | 20321 ft | 433 kts | 66° |
| 2026-05-06 19:34 | 52.32178 | 3.18375 | 20048 ft | 427 kts | 65° |
| 2026-05-06 19:34 | 52.33356 | 3.22836 | 19976 ft | 429 kts | 66° |
| 2026-05-06 19:35 | 52.34535 | 3.27302 | 19983 ft | 426 kts | 66° |
| 2026-05-06 19:35 | 52.35713 | 3.31775 | 19982 ft | 430 kts | 66° |
| 2026-05-06 19:35 | 52.36888 | 3.36246 | 19982 ft | 426 kts | 66° |
| 2026-05-06 19:35 | 52.38050 | 3.40676 | 19842 ft | 432 kts | 66° |
| 2026-05-06 19:36 | 52.39230 | 3.45184 | 19429 ft | 429 kts | 66° |
| 2026-05-06 19:36 | 52.40399 | 3.49662 | 18870 ft | 426 kts | 66° |
| 2026-05-06 19:36 | 52.41558 | 3.54109 | 18198 ft | 422 kts | 66° |
| 2026-05-06 19:36 | 52.42700 | 3.58503 | 17416 ft | 416 kts | 66° |
| 2026-05-06 19:37 | 52.43822 | 3.62823 | 16626 ft | 409 kts | 66° |
| 2026-05-06 19:37 | 52.44927 | 3.67095 | 15785 ft | 405 kts | 65° |
| 2026-05-06 19:37 | 52.46026 | 3.71338 | 14879 ft | 403 kts | 65° |
| 2026-05-06 19:37 | 52.46748 | 3.74132 | 14289 ft | 401 kts | 66° |
| 2026-05-06 19:38 | 52.48215 | 3.79816 | 12527 ft | 407 kts | 66° |
| 2026-05-06 19:38 | 52.49308 | 3.84062 | 11624 ft | 393 kts | 66° |
| 2026-05-06 19:38 | 52.50333 | 3.88061 | 11123 ft | 370 kts | 66° |
| 2026-05-06 19:38 | 52.51318 | 3.91906 | 10570 ft | 360 kts | 66° |
| 2026-05-06 19:39 | 52.51984 | 3.95839 | 9851 ft | 358 kts | 84° |
| 2026-05-06 19:39 | 52.52026 | 3.99842 | 9583 ft | 342 kts | 91° |
| 2026-05-06 19:39 | 52.51923 | 4.03634 | 9405 ft | 324 kts | 92° |
| 2026-05-06 19:39 | 52.51796 | 4.07226 | 9241 ft | 307 kts | 92° |
| 2026-05-06 19:40 | 52.51670 | 4.10628 | 9097 ft | 291 kts | 92° |
| 2026-05-06 19:40 | 52.51549 | 4.13883 | 8808 ft | 282 kts | 92° |
| 2026-05-06 19:40 | 52.51234 | 4.17028 | 8389 ft | 280 kts | 110° |
| 2026-05-06 19:40 | 52.50146 | 4.19655 | 7956 ft | 281 kts | 137° |
| 2026-05-06 19:41 | 52.48515 | 4.21307 | 7542 ft | 279 kts | 152° |
| 2026-05-06 19:41 | 52.46776 | 4.22699 | 7144 ft | 277 kts | 152° |
| 2026-05-06 19:41 | 52.45039 | 4.24065 | 6990 ft | 279 kts | 152° |
| 2026-05-06 19:41 | 52.43298 | 4.25454 | 6968 ft | 278 kts | 152° |
| 2026-05-06 19:42 | 52.41558 | 4.26864 | 6824 ft | 279 kts | 152° |
| 2026-05-06 19:42 | 52.39813 | 4.28266 | 6391 ft | 280 kts | 152° |
| 2026-05-06 19:42 | 52.38054 | 4.29652 | 5857 ft | 281 kts | 152° |
| 2026-05-06 19:42 | 52.36291 | 4.31027 | 5354 ft | 281 kts | 152° |
| 2026-05-06 19:43 | 52.34523 | 4.32392 | 4831 ft | 281 kts | 152° |
| 2026-05-06 19:43 | 52.32752 | 4.33753 | 4311 ft | 282 kts | 152° |
| 2026-05-06 19:43 | 52.30980 | 4.35119 | 3791 ft | 282 kts | 152° |
| 2026-05-06 19:43 | 52.29206 | 4.36478 | 3269 ft | 281 kts | 152° |
| 2026-05-06 19:44 | 52.27447 | 4.37807 | 2890 ft | 275 kts | 152° |
| 2026-05-06 19:44 | 52.25739 | 4.39088 | 2573 ft | 266 kts | 152° |
| 2026-05-06 19:44 | 52.24075 | 4.40328 | 2263 ft | 260 kts | 152° |
| 2026-05-06 19:44 | 52.22442 | 4.41508 | 2028 ft | 251 kts | 152° |
| 2026-05-06 19:45 | 52.20916 | 4.42616 | 1976 ft | 229 kts | 147° |
| 2026-05-06 19:45 | 52.19868 | 4.44252 | 1985 ft | 196 kts | 112° |
| 2026-05-06 19:45 | 52.19573 | 4.46168 | 1990 ft | 178 kts | 93° |
| 2026-05-06 19:45 | 52.19516 | 4.48139 | 1986 ft | 172 kts | 81° |
| 2026-05-06 19:46 | 52.19803 | 4.49995 | 1984 ft | 167 kts | 66° |
| 2026-05-06 19:46 | 52.20316 | 4.51674 | 1985 ft | 163 kts | 58° |
| 2026-05-06 19:46 | 52.20917 | 4.53275 | 1981 ft | 164 kts | 56° |
| 2026-05-06 19:46 | 52.21535 | 4.54854 | 1981 ft | 165 kts | 56° |
| 2026-05-06 19:47 | 52.22120 | 4.56355 | 1982 ft | 168 kts | 56° |
| 2026-05-06 19:47 | 52.22737 | 4.57936 | 1983 ft | 166 kts | 57° |
| 2026-05-06 19:47 | 52.23352 | 4.59513 | 1983 ft | 166 kts | 56° |
| 2026-05-06 19:47 | 52.23975 | 4.61111 | 1845 ft | 165 kts | 56° |
| 2026-05-06 19:48 | 52.24570 | 4.62640 | 1615 ft | 151 kts | 56° |
| 2026-05-06 19:48 | 52.25099 | 4.63997 | 1406 ft | 134 kts | 56° |
| 2026-05-06 19:48 | 52.25576 | 4.65220 | 1230 ft | 122 kts | 56° |
| 2026-05-06 19:48 | 52.26044 | 4.66419 | 1061 ft | 124 kts | 56° |
| 2026-05-06 19:49 | 52.26506 | 4.67599 | 886 ft | 126 kts | 54° |
| 2026-05-06 19:49 | 52.27003 | 4.68783 | 757 ft | 122 kts | 53° |
| 2026-05-06 19:49 | 52.27458 | 4.69956 | 547 ft | 128 kts | 54° |
| 2026-05-06 19:49 | 52.27917 | 4.71151 | 460 ft | 122 kts | 54° |
| 2026-05-06 19:50 | 52.28397 | 4.72381 | 272 ft | 132 kts | 54° |
| 2026-05-06 19:50 | 52.28871 | 4.73616 | 84 ft | 130 kts | 54° |
| 2026-05-06 19:50 | 52.29332 | 4.74809 | 17 ft | 112 kts | 57° |
| 2026-05-06 19:50 | 52.29635 | 4.75601 | 17 ft | 58 kts | 59° |
| 2026-05-06 19:51 | 52.29781 | 4.75991 | 12 ft | 36 kts | 57° |
| 2026-05-06 19:51 | 52.29919 | 4.76348 | 12 ft | 38 kts | 63° |
| 2026-05-06 19:51 | 52.30112 | 4.76609 | 18 ft | 34 kts | 27° |
| 2026-05-06 19:51 | 52.30158 | 4.76649 | 16 ft | 0 kts | 28° |
| 2026-05-06 19:52 | 52.30160 | 4.76651 | 16 ft | 1 kts | 28° |